Terminal Aerodrome Forecast
Issued by NWS Sterling, VA

Current Version | Previous Version | Text Only | Print | Product List | Glossary Off
Versions: 1 2 3 4 5 6 7 8 9 10 11 12 13 14 15 16

180
FTUS41 KLWX 081740
TAFMRB
TAF
KMRB 081740Z 0818/0918 14006KT P6SM BKN250
     FM082200 12005KT P6SM -RA OVC025
     FM090100 12005KT 2SM -RASN OVC020
     FM090600 VRB03KT 1SM -SN OVC005=

USA.gov is the U.S. government's official web portal to all federal, state and local government web resources and services.